sensor_id;sensor_type;location;lat;lon;timestamp;P1;durP1;ratioP1;P2;durP2;ratioP2
55655;SDS011;41530;52.382;5.270;2023-05-02T00:01:34;6.15;;;1.88;;
55655;SDS011;41530;52.382;5.270;2023-05-02T00:04:06;3.40;;;1.70;;
55655;SDS011;41530;52.382;5.270;2023-05-02T00:06:50;2.78;;;1.67;;
55655;SDS011;41530;52.382;5.270;2023-05-02T00:10:05;3.90;;;1.42;;
55655;SDS011;41530;52.382;5.270;2023-05-02T00:13:09;3.63;;;1.45;;
55655;SDS011;41530;52.382;5.270;2023-05-02T00:18:55;3.15;;;1.40;;
55655;SDS011;41530;52.382;5.270;2023-05-02T00:21:32;3.88;;;1.33;;
55655;SDS011;41530;52.382;5.270;2023-05-02T00:24:14;2.35;;;1.10;;
55655;SDS011;41530;52.382;5.270;2023-05-02T00:27:29;3.75;;;1.27;;
55655;SDS011;41530;52.382;5.270;2023-05-02T00:30:15;2.03;;;1.00;;
55655;SDS011;41530;52.382;5.270;2023-05-02T00:32:54;4.53;;;1.30;;
55655;SDS011;41530;52.382;5.270;2023-05-02T00:35:26;4.80;;;0.93;;
55655;SDS011;41530;52.382;5.270;2023-05-02T00:38:03;2.35;;;0.90;;
55655;SDS011;41530;52.382;5.270;2023-05-02T00:41:08;1.27;;;0.75;;
55655;SDS011;41530;52.382;5.270;2023-05-02T00:43:52;3.65;;;0.90;;
55655;SDS011;41530;52.382;5.270;2023-05-02T00:46:40;3.08;;;0.80;;
55655;SDS011;41530;52.382;5.270;2023-05-02T00:49:27;5.10;;;1.00;;
55655;SDS011;41530;52.382;5.270;2023-05-02T00:52:02;2.23;;;0.90;;
55655;SDS011;41530;52.382;5.270;2023-05-02T00:55:10;3.40;;;0.95;;
55655;SDS011;41530;52.382;5.270;2023-05-02T00:57:51;2.42;;;0.90;;
55655;SDS011;41530;52.382;5.270;2023-05-02T01:00:31;4.57;;;0.90;;
55655;SDS011;41530;52.382;5.270;2023-05-02T01:13:48;1.67;;;0.70;;
55655;SDS011;41530;52.382;5.270;2023-05-02T01:19:40;3.88;;;0.98;;
55655;SDS011;41530;52.382;5.270;2023-05-02T01:22:18;3.38;;;0.90;;
55655;SDS011;41530;52.382;5.270;2023-05-02T01:31:03;2.90;;;0.82;;
55655;SDS011;41530;52.382;5.270;2023-05-02T01:36:21;4.13;;;0.98;;
55655;SDS011;41530;52.382;5.270;2023-05-02T01:38:50;3.97;;;0.90;;
55655;SDS011;41530;52.382;5.270;2023-05-02T01:41:18;7.63;;;0.90;;
55655;SDS011;41530;52.382;5.270;2023-05-02T01:43:46;3.60;;;0.80;;
55655;SDS011;41530;52.382;5.270;2023-05-02T01:46:13;4.47;;;0.90;;
55655;SDS011;41530;52.382;5.270;2023-05-02T01:48:42;1.83;;;0.60;;
55655;SDS011;41530;52.382;5.270;2023-05-02T01:51:11;2.60;;;0.70;;
55655;SDS011;41530;52.382;5.270;2023-05-02T01:53:40;2.75;;;0.85;;
55655;SDS011;41530;52.382;5.270;2023-05-02T01:56:09;1.60;;;0.70;;
55655;SDS011;41530;52.382;5.270;2023-05-02T01:58:35;1.77;;;0.68;;
55655;SDS011;41530;52.382;5.270;2023-05-02T02:01:04;3.22;;;0.80;;
55655;SDS011;41530;52.382;5.270;2023-05-02T02:03:31;4.50;;;0.95;;
55655;SDS011;41530;52.382;5.270;2023-05-02T02:05:58;2.38;;;1.05;;
55655;SDS011;41530;52.382;5.270;2023-05-02T02:08:26;2.83;;;1.08;;
55655;SDS011;41530;52.382;5.270;2023-05-02T02:10:54;3.10;;;0.70;;
55655;SDS011;41530;52.382;5.270;2023-05-02T02:13:30;2.47;;;0.60;;
55655;SDS011;41530;52.382;5.270;2023-05-02T02:16:02;3.50;;;1.40;;
55655;SDS011;41530;52.382;5.270;2023-05-02T02:18:40;4.05;;;0.50;;
55655;SDS011;41530;52.382;5.270;2023-05-02T02:21:43;6.50;;;0.70;;
55655;SDS011;41530;52.382;5.270;2023-05-02T02:24:28;2.47;;;0.70;;
55655;SDS011;41530;52.382;5.270;2023-05-02T02:30:07;1.63;;;0.60;;
55655;SDS011;41530;52.382;5.270;2023-05-02T02:33:30;1.65;;;0.70;;
55655;SDS011;41530;52.382;5.270;2023-05-02T02:42:23;2.90;;;0.85;;
55655;SDS011;41530;52.382;5.270;2023-05-02T02:48:50;1.85;;;0.70;;
55655;SDS011;41530;52.382;5.270;2023-05-02T03:01:42;4.50;;;1.15;;
55655;SDS011;41530;52.382;5.270;2023-05-02T03:04:50;6.47;;;1.00;;
55655;SDS011;41530;52.382;5.270;2023-05-02T03:10:43;2.17;;;1.00;;
55655;SDS011;41530;52.382;5.270;2023-05-02T03:13:49;2.30;;;0.60;;
55655;SDS011;41530;52.382;5.270;2023-05-02T03:16:47;3.33;;;0.82;;
55655;SDS011;41530;52.382;5.270;2023-05-02T03:22:42;3.58;;;1.00;;
55655;SDS011;41530;52.382;5.270;2023-05-02T03:25:20;3.83;;;0.80;;
55655;SDS011;41530;52.382;5.270;2023-05-02T03:31:26;1.42;;;0.70;;
55655;SDS011;41530;52.382;5.270;2023-05-02T03:34:21;2.63;;;0.85;;
55655;SDS011;41530;52.382;5.270;2023-05-02T03:37:18;6.63;;;1.17;;
55655;SDS011;41530;52.382;5.270;2023-05-02T03:39:59;2.05;;;0.80;;
55655;SDS011;41530;52.382;5.270;2023-05-02T03:42:41;3.38;;;1.15;;
55655;SDS011;41530;52.382;5.270;2023-05-02T03:45:20;3.72;;;1.00;;
55655;SDS011;41530;52.382;5.270;2023-05-02T03:47:59;3.15;;;0.70;;
55655;SDS011;41530;52.382;5.270;2023-05-02T03:51:08;3.60;;;0.77;;
55655;SDS011;41530;52.382;5.270;2023-05-02T03:54:11;6.80;;;1.00;;
55655;SDS011;41530;52.382;5.270;2023-05-02T03:56:54;4.22;;;1.02;;
55655;SDS011;41530;52.382;5.270;2023-05-02T03:59:33;2.10;;;0.80;;
55655;SDS011;41530;52.382;5.270;2023-05-02T04:05:04;5.18;;;0.80;;
55655;SDS011;41530;52.382;5.270;2023-05-02T04:08:17;4.32;;;1.10;;
55655;SDS011;41530;52.382;5.270;2023-05-02T04:11:39;4.90;;;0.90;;
55655;SDS011;41530;52.382;5.270;2023-05-02T04:14:32;3.40;;;1.08;;
55655;SDS011;41530;52.382;5.270;2023-05-02T04:19:58;2.92;;;1.02;;
55655;SDS011;41530;52.382;5.270;2023-05-02T04:22:33;5.70;;;1.23;;
55655;SDS011;41530;52.382;5.270;2023-05-02T04:25:29;3.53;;;0.95;;
55655;SDS011;41530;52.382;5.270;2023-05-02T04:28:49;5.68;;;1.33;;
55655;SDS011;41530;52.382;5.270;2023-05-02T04:32:05;5.45;;;1.30;;
55655;SDS011;41530;52.382;5.270;2023-05-02T04:35:40;3.83;;;1.10;;
55655;SDS011;41530;52.382;5.270;2023-05-02T04:38:29;4.85;;;1.08;;
55655;SDS011;41530;52.382;5.270;2023-05-02T04:44:24;5.95;;;1.30;;
55655;SDS011;41530;52.382;5.270;2023-05-02T04:47:22;5.20;;;1.10;;
55655;SDS011;41530;52.382;5.270;2023-05-02T04:50:12;5.50;;;1.33;;
55655;SDS011;41530;52.382;5.270;2023-05-02T04:53:21;2.58;;;0.70;;
55655;SDS011;41530;52.382;5.270;2023-05-02T04:56:19;4.72;;;1.20;;
55655;SDS011;41530;52.382;5.270;2023-05-02T04:59:19;4.43;;;1.20;;
55655;SDS011;41530;52.382;5.270;2023-05-02T05:02:10;4.25;;;1.30;;
55655;SDS011;41530;52.382;5.270;2023-05-02T05:04:55;3.08;;;0.93;;
55655;SDS011;41530;52.382;5.270;2023-05-02T05:07:42;4.60;;;0.90;;
55655;SDS011;41530;52.382;5.270;2023-05-02T05:10:31;5.55;;;1.20;;
55655;SDS011;41530;52.382;5.270;2023-05-02T05:16:57;2.92;;;1.10;;
55655;SDS011;41530;52.382;5.270;2023-05-02T05:19:49;5.07;;;1.05;;
55655;SDS011;41530;52.382;5.270;2023-05-02T05:22:30;5.00;;;1.13;;
55655;SDS011;41530;52.382;5.270;2023-05-02T05:25:16;4.43;;;0.73;;
55655;SDS011;41530;52.382;5.270;2023-05-02T05:28:41;5.28;;;0.98;;
55655;SDS011;41530;52.382;5.270;2023-05-02T05:31:43;3.97;;;1.00;;
55655;SDS011;41530;52.382;5.270;2023-05-02T05:34:44;3.58;;;0.90;;
55655;SDS011;41530;52.382;5.270;2023-05-02T05:37:42;3.33;;;0.93;;
55655;SDS011;41530;52.382;5.270;2023-05-02T05:40:54;2.97;;;0.80;;
55655;SDS011;41530;52.382;5.270;2023-05-02T05:43:47;5.38;;;0.93;;
55655;SDS011;41530;52.382;5.270;2023-05-02T05:46:45;2.95;;;1.05;;
55655;SDS011;41530;52.382;5.270;2023-05-02T05:49:46;2.83;;;0.82;;
55655;SDS011;41530;52.382;5.270;2023-05-02T05:52:32;3.47;;;0.80;;
55655;SDS011;41530;52.382;5.270;2023-05-02T05:55:10;3.20;;;0.70;;
55655;SDS011;41530;52.382;5.270;2023-05-02T05:57:59;4.82;;;0.93;;
55655;SDS011;41530;52.382;5.270;2023-05-02T06:00:40;2.38;;;0.70;;
55655;SDS011;41530;52.382;5.270;2023-05-02T06:03:22;2.80;;;0.80;;
55655;SDS011;41530;52.382;5.270;2023-05-02T06:06:17;1.88;;;0.70;;
55655;SDS011;41530;52.382;5.270;2023-05-02T06:08:57;3.72;;;1.00;;
55655;SDS011;41530;52.382;5.270;2023-05-02T06:11:48;2.70;;;0.88;;
55655;SDS011;41530;52.382;5.270;2023-05-02T06:15:09;3.10;;;0.90;;
55655;SDS011;41530;52.382;5.270;2023-05-02T06:18:21;3.05;;;0.70;;
55655;SDS011;41530;52.382;5.270;2023-05-02T06:21:13;5.63;;;0.77;;
55655;SDS011;41530;52.382;5.270;2023-05-02T06:23:46;2.35;;;0.90;;
55655;SDS011;41530;52.382;5.270;2023-05-02T06:26:42;4.20;;;0.82;;
55655;SDS011;41530;52.382;5.270;2023-05-02T06:29:12;3.70;;;0.80;;
55655;SDS011;41530;52.382;5.270;2023-05-02T06:35:04;1.42;;;0.63;;
55655;SDS011;41530;52.382;5.270;2023-05-02T06:41:40;2.15;;;0.70;;
55655;SDS011;41530;52.382;5.270;2023-05-02T06:44:14;2.55;;;0.65;;
55655;SDS011;41530;52.382;5.270;2023-05-02T06:47:16;3.08;;;0.90;;
55655;SDS011;41530;52.382;5.270;2023-05-02T06:53:15;3.38;;;0.90;;
55655;SDS011;41530;52.382;5.270;2023-05-02T06:55:43;1.77;;;0.55;;
55655;SDS011;41530;52.382;5.270;2023-05-02T06:58:11;1.55;;;0.60;;
55655;SDS011;41530;52.382;5.270;2023-05-02T07:00:38;3.13;;;0.82;;
55655;SDS011;41530;52.382;5.270;2023-05-02T07:03:04;1.65;;;0.70;;
55655;SDS011;41530;52.382;5.270;2023-05-02T07:05:31;2.17;;;0.77;;
55655;SDS011;41530;52.382;5.270;2023-05-02T07:07:58;2.17;;;0.82;;
55655;SDS011;41530;52.382;5.270;2023-05-02T07:10:24;1.88;;;0.80;;
55655;SDS011;41530;52.382;5.270;2023-05-02T07:12:51;2.55;;;0.60;;
55655;SDS011;41530;52.382;5.270;2023-05-02T07:15:18;1.83;;;0.80;;
55655;SDS011;41530;52.382;5.270;2023-05-02T07:17:44;1.83;;;0.70;;
55655;SDS011;41530;52.382;5.270;2023-05-02T07:20:13;4.57;;;0.70;;
55655;SDS011;41530;52.382;5.270;2023-05-02T07:22:41;2.25;;;0.60;;
55655;SDS011;41530;52.382;5.270;2023-05-02T07:25:08;2.95;;;0.68;;
55655;SDS011;41530;52.382;5.270;2023-05-02T07:27:35;1.27;;;0.70;;
55655;SDS011;41530;52.382;5.270;2023-05-02T07:30:01;2.97;;;0.80;;
55655;SDS011;41530;52.382;5.270;2023-05-02T07:32:29;3.88;;;0.63;;
55655;SDS011;41530;52.382;5.270;2023-05-02T07:34:56;1.02;;;0.63;;
55655;SDS011;41530;52.382;5.270;2023-05-02T07:37:23;1.67;;;0.75;;
55655;SDS011;41530;52.382;5.270;2023-05-02T07:39:50;3.42;;;0.80;;
55655;SDS011;41530;52.382;5.270;2023-05-02T07:42:16;1.20;;;0.60;;
55655;SDS011;41530;52.382;5.270;2023-05-02T07:44:43;1.92;;;0.82;;
55655;SDS011;41530;52.382;5.270;2023-05-02T07:47:09;2.47;;;0.88;;
55655;SDS011;41530;52.382;5.270;2023-05-02T07:49:36;1.52;;;0.60;;
55655;SDS011;41530;52.382;5.270;2023-05-02T07:52:03;0.73;;;0.50;;
55655;SDS011;41530;52.382;5.270;2023-05-02T07:54:30;5.20;;;0.80;;
55655;SDS011;41530;52.382;5.270;2023-05-02T07:56:56;1.58;;;0.85;;
55655;SDS011;41530;52.382;5.270;2023-05-02T07:59:28;1.23;;;0.60;;
55655;SDS011;41530;52.382;5.270;2023-05-02T08:01:56;2.60;;;0.75;;
55655;SDS011;41530;52.382;5.270;2023-05-02T08:04:23;2.70;;;0.90;;
55655;SDS011;41530;52.382;5.270;2023-05-02T08:06:49;1.77;;;0.68;;
55655;SDS011;41530;52.382;5.270;2023-05-02T08:09:17;1.83;;;0.60;;
55655;SDS011;41530;52.382;5.270;2023-05-02T08:11:43;3.15;;;0.75;;
55655;SDS011;41530;52.382;5.270;2023-05-02T08:14:10;2.00;;;0.80;;
55655;SDS011;41530;52.382;5.270;2023-05-02T08:16:36;1.77;;;0.77;;
55655;SDS011;41530;52.382;5.270;2023-05-02T08:19:04;0.90;;;0.60;;
55655;SDS011;41530;52.382;5.270;2023-05-02T08:21:30;1.70;;;0.57;;
55655;SDS011;41530;52.382;5.270;2023-05-02T08:23:57;1.35;;;0.60;;
55655;SDS011;41530;52.382;5.270;2023-05-02T08:26:25;1.60;;;0.63;;
55655;SDS011;41530;52.382;5.270;2023-05-02T08:28:52;1.67;;;0.75;;
55655;SDS011;41530;52.382;5.270;2023-05-02T08:31:20;2.35;;;0.60;;
55655;SDS011;41530;52.382;5.270;2023-05-02T08:33:47;3.30;;;0.70;;
55655;SDS011;41530;52.382;5.270;2023-05-02T08:36:14;2.97;;;0.90;;
55655;SDS011;41530;52.382;5.270;2023-05-02T08:38:42;1.30;;;0.60;;
55655;SDS011;41530;52.382;5.270;2023-05-02T08:41:10;1.15;;;0.60;;
55655;SDS011;41530;52.382;5.270;2023-05-02T08:43:42;2.47;;;0.57;;
55655;SDS011;41530;52.382;5.270;2023-05-02T08:46:12;2.05;;;0.63;;
55655;SDS011;41530;52.382;5.270;2023-05-02T08:48:41;0.98;;;0.45;;
55655;SDS011;41530;52.382;5.270;2023-05-02T08:51:11;1.25;;;0.50;;
55655;SDS011;41530;52.382;5.270;2023-05-02T08:53:39;1.15;;;0.60;;
55655;SDS011;41530;52.382;5.270;2023-05-02T08:56:06;1.27;;;0.50;;
55655;SDS011;41530;52.382;5.270;2023-05-02T08:58:37;1.70;;;0.63;;
55655;SDS011;41530;52.382;5.270;2023-05-02T09:01:15;1.98;;;0.70;;
55655;SDS011;41530;52.382;5.270;2023-05-02T09:03:44;1.45;;;0.60;;
55655;SDS011;41530;52.382;5.270;2023-05-02T09:06:15;1.67;;;0.50;;
55655;SDS011;41530;52.382;5.270;2023-05-02T09:08:45;1.20;;;0.70;;
55655;SDS011;41530;52.382;5.270;2023-05-02T09:11:14;2.60;;;0.80;;
55655;SDS011;41530;52.382;5.270;2023-05-02T09:13:43;0.75;;;0.50;;
55655;SDS011;41530;52.382;5.270;2023-05-02T09:16:14;1.05;;;0.65;;
55655;SDS011;41530;52.382;5.270;2023-05-02T09:18:49;1.20;;;0.50;;
55655;SDS011;41530;52.382;5.270;2023-05-02T09:21:24;1.52;;;0.60;;
55655;SDS011;41530;52.382;5.270;2023-05-02T09:23:55;0.93;;;0.57;;
55655;SDS011;41530;52.382;5.270;2023-05-02T09:26:25;2.00;;;0.60;;
55655;SDS011;41530;52.382;5.270;2023-05-02T09:28:57;1.50;;;0.70;;
55655;SDS011;41530;52.382;5.270;2023-05-02T09:31:26;0.70;;;0.50;;
55655;SDS011;41530;52.382;5.270;2023-05-02T09:34:21;1.60;;;0.63;;
55655;SDS011;41530;52.382;5.270;2023-05-02T09:36:48;0.75;;;0.50;;
55655;SDS011;41530;52.382;5.270;2023-05-02T09:39:19;2.03;;;0.60;;
55655;SDS011;41530;52.382;5.270;2023-05-02T09:41:51;1.13;;;0.55;;
55655;SDS011;41530;52.382;5.270;2023-05-02T09:44:19;1.08;;;0.60;;
55655;SDS011;41530;52.382;5.270;2023-05-02T09:46:47;1.77;;;0.70;;
55655;SDS011;41530;52.382;5.270;2023-05-02T09:49:38;0.57;;;0.50;;
55655;SDS011;41530;52.382;5.270;2023-05-02T09:52:16;1.13;;;0.50;;
55655;SDS011;41530;52.382;5.270;2023-05-02T09:54:45;1.67;;;0.63;;
55655;SDS011;41530;52.382;5.270;2023-05-02T09:57:12;0.77;;;0.50;;
55655;SDS011;41530;52.382;5.270;2023-05-02T09:59:39;0.50;;;0.50;;
55655;SDS011;41530;52.382;5.270;2023-05-02T10:02:07;0.93;;;0.55;;
55655;SDS011;41530;52.382;5.270;2023-05-02T10:04:36;1.85;;;0.70;;
55655;SDS011;41530;52.382;5.270;2023-05-02T10:07:04;1.55;;;0.88;;
55655;SDS011;41530;52.382;5.270;2023-05-02T10:09:33;0.55;;;0.52;;
55655;SDS011;41530;52.382;5.270;2023-05-02T10:12:01;0.80;;;0.50;;
55655;SDS011;41530;52.382;5.270;2023-05-02T10:14:30;0.90;;;0.60;;
55655;SDS011;41530;52.382;5.270;2023-05-02T10:17:00;0.95;;;0.60;;
55655;SDS011;41530;52.382;5.270;2023-05-02T10:19:40;1.70;;;0.50;;
55655;SDS011;41530;52.382;5.270;2023-05-02T10:22:20;0.52;;;0.52;;
55655;SDS011;41530;52.382;5.270;2023-05-02T10:24:48;1.17;;;0.47;;
55655;SDS011;41530;52.382;5.270;2023-05-02T10:27:15;0.45;;;0.45;;
55655;SDS011;41530;52.382;5.270;2023-05-02T10:29:42;0.73;;;0.57;;
55655;SDS011;41530;52.382;5.270;2023-05-02T10:32:09;0.40;;;0.40;;
55655;SDS011;41530;52.382;5.270;2023-05-02T10:34:36;0.57;;;0.55;;
55655;SDS011;41530;52.382;5.270;2023-05-02T10:37:05;1.02;;;0.60;;
55655;SDS011;41530;52.382;5.270;2023-05-02T10:39:32;0.95;;;0.55;;
55655;SDS011;41530;52.382;5.270;2023-05-02T10:41:59;1.23;;;0.52;;
55655;SDS011;41530;52.382;5.270;2023-05-02T10:44:35;1.33;;;0.70;;
55655;SDS011;41530;52.382;5.270;2023-05-02T10:47:23;0.88;;;0.60;;
55655;SDS011;41530;52.382;5.270;2023-05-02T10:49:53;1.25;;;0.47;;
55655;SDS011;41530;52.382;5.270;2023-05-02T10:52:28;0.60;;;0.40;;
55655;SDS011;41530;52.382;5.270;2023-05-02T11:00:24;0.95;;;0.60;;
55655;SDS011;41530;52.382;5.270;2023-05-02T11:02:53;1.38;;;0.52;;
55655;SDS011;41530;52.382;5.270;2023-05-02T11:05:20;0.85;;;0.50;;
55655;SDS011;41530;52.382;5.270;2023-05-02T11:07:48;0.55;;;0.43;;
55655;SDS011;41530;52.382;5.270;2023-05-02T11:12:48;0.82;;;0.60;;
55655;SDS011;41530;52.382;5.270;2023-05-02T11:18:01;1.50;;;0.60;;
55655;SDS011;41530;52.382;5.270;2023-05-02T11:20:29;1.27;;;0.80;;
55655;SDS011;41530;52.382;5.270;2023-05-02T11:22:58;0.65;;;0.38;;
55655;SDS011;41530;52.382;5.270;2023-05-02T11:25:55;1.95;;;0.68;;
55655;SDS011;41530;52.382;5.270;2023-05-02T11:28:42;1.10;;;0.55;;
55655;SDS011;41530;52.382;5.270;2023-05-02T11:33:57;0.65;;;0.50;;
55655;SDS011;41530;52.382;5.270;2023-05-02T11:36:34;1.35;;;0.70;;
55655;SDS011;41530;52.382;5.270;2023-05-02T11:39:02;1.10;;;0.47;;
55655;SDS011;41530;52.382;5.270;2023-05-02T11:41:42;1.08;;;0.50;;
55655;SDS011;41530;52.382;5.270;2023-05-02T11:44:09;1.02;;;0.50;;
55655;SDS011;41530;52.382;5.270;2023-05-02T11:46:36;0.95;;;0.50;;
55655;SDS011;41530;52.382;5.270;2023-05-02T11:49:06;1.17;;;0.50;;
55655;SDS011;41530;52.382;5.270;2023-05-02T11:51:35;1.05;;;0.50;;
55655;SDS011;41530;52.382;5.270;2023-05-02T11:54:02;0.77;;;0.60;;
55655;SDS011;41530;52.382;5.270;2023-05-02T11:56:29;0.90;;;0.50;;
55655;SDS011;41530;52.382;5.270;2023-05-02T11:58:59;1.17;;;0.65;;
55655;SDS011;41530;52.382;5.270;2023-05-02T12:01:27;0.88;;;0.70;;
55655;SDS011;41530;52.382;5.270;2023-05-02T12:04:03;0.73;;;0.60;;
55655;SDS011;41530;52.382;5.270;2023-05-02T12:06:33;0.93;;;0.60;;
55655;SDS011;41530;52.382;5.270;2023-05-02T12:09:06;0.65;;;0.60;;
55655;SDS011;41530;52.382;5.270;2023-05-02T12:11:35;1.25;;;0.80;;
55655;SDS011;41530;52.382;5.270;2023-05-02T12:14:04;0.73;;;0.60;;
55655;SDS011;41530;52.382;5.270;2023-05-02T12:16:32;1.25;;;0.60;;
55655;SDS011;41530;52.382;5.270;2023-05-02T12:18:59;1.58;;;0.60;;
55655;SDS011;41530;52.382;5.270;2023-05-02T12:21:29;0.60;;;0.50;;
55655;SDS011;41530;52.382;5.270;2023-05-02T12:23:59;1.50;;;0.52;;
55655;SDS011;41530;52.382;5.270;2023-05-02T12:26:27;1.25;;;0.68;;
55655;SDS011;41530;52.382;5.270;2023-05-02T12:28:58;2.20;;;0.50;;
55655;SDS011;41530;52.382;5.270;2023-05-02T12:31:27;1.20;;;0.47;;
55655;SDS011;41530;52.382;5.270;2023-05-02T12:33:56;1.00;;;0.50;;
55655;SDS011;41530;52.382;5.270;2023-05-02T12:36:25;0.80;;;0.60;;
55655;SDS011;41530;52.382;5.270;2023-05-02T12:38:56;2.92;;;0.60;;
55655;SDS011;41530;52.382;5.270;2023-05-02T12:41:32;2.08;;;0.60;;
55655;SDS011;41530;52.382;5.270;2023-05-02T12:43:59;1.20;;;0.60;;
55655;SDS011;41530;52.382;5.270;2023-05-02T12:46:26;1.10;;;0.50;;
55655;SDS011;41530;52.382;5.270;2023-05-02T12:49:04;0.50;;;0.50;;
55655;SDS011;41530;52.382;5.270;2023-05-02T12:51:51;2.15;;;0.70;;
55655;SDS011;41530;52.382;5.270;2023-05-02T12:54:21;1.25;;;0.52;;
55655;SDS011;41530;52.382;5.270;2023-05-02T12:56:48;0.63;;;0.50;;
55655;SDS011;41530;52.382;5.270;2023-05-02T12:59:24;1.25;;;0.60;;
55655;SDS011;41530;52.382;5.270;2023-05-02T13:01:51;0.50;;;0.50;;
55655;SDS011;41530;52.382;5.270;2023-05-02T13:04:18;0.60;;;0.52;;
55655;SDS011;41530;52.382;5.270;2023-05-02T13:06:45;2.00;;;0.73;;
55655;SDS011;41530;52.382;5.270;2023-05-02T13:09:12;0.60;;;0.60;;
55655;SDS011;41530;52.382;5.270;2023-05-02T13:11:39;1.00;;;0.65;;
55655;SDS011;41530;52.382;5.270;2023-05-02T13:14:05;2.10;;;0.60;;
55655;SDS011;41530;52.382;5.270;2023-05-02T13:16:32;0.85;;;0.63;;
55655;SDS011;41530;52.382;5.270;2023-05-02T13:18:59;0.50;;;0.50;;
55655;SDS011;41530;52.382;5.270;2023-05-02T13:21:26;0.90;;;0.52;;
55655;SDS011;41530;52.382;5.270;2023-05-02T13:23:53;0.47;;;0.40;;
55655;SDS011;41530;52.382;5.270;2023-05-02T13:26:20;0.50;;;0.50;;
55655;SDS011;41530;52.382;5.270;2023-05-02T13:28:47;0.47;;;0.47;;
55655;SDS011;41530;52.382;5.270;2023-05-02T13:31:13;0.60;;;0.57;;
55655;SDS011;41530;52.382;5.270;2023-05-02T13:33:40;0.75;;;0.55;;
55655;SDS011;41530;52.382;5.270;2023-05-02T13:36:07;1.23;;;0.70;;
55655;SDS011;41530;52.382;5.270;2023-05-02T13:38:33;0.55;;;0.50;;
55655;SDS011;41530;52.382;5.270;2023-05-02T13:41:00;0.88;;;0.52;;
55655;SDS011;41530;52.382;5.270;2023-05-02T13:43:26;0.50;;;0.50;;
55655;SDS011;41530;52.382;5.270;2023-05-02T13:45:53;1.13;;;0.50;;
55655;SDS011;41530;52.382;5.270;2023-05-02T13:48:20;1.13;;;0.60;;
55655;SDS011;41530;52.382;5.270;2023-05-02T13:50:46;0.93;;;0.73;;
55655;SDS011;41530;52.382;5.270;2023-05-02T13:53:13;2.10;;;0.50;;
55655;SDS011;41530;52.382;5.270;2023-05-02T13:55:39;0.80;;;0.52;;
55655;SDS011;41530;52.382;5.270;2023-05-02T13:58:06;0.60;;;0.50;;
55655;SDS011;41530;52.382;5.270;2023-05-02T14:00:33;0.68;;;0.45;;
55655;SDS011;41530;52.382;5.270;2023-05-02T14:02:59;1.05;;;0.50;;
55655;SDS011;41530;52.382;5.270;2023-05-02T14:05:26;1.23;;;0.40;;
55655;SDS011;41530;52.382;5.270;2023-05-02T14:07:53;0.60;;;0.50;;
55655;SDS011;41530;52.382;5.270;2023-05-02T14:10:20;1.00;;;0.68;;
55655;SDS011;41530;52.382;5.270;2023-05-02T14:12:46;0.50;;;0.40;;
55655;SDS011;41530;52.382;5.270;2023-05-02T14:15:13;0.73;;;0.43;;
55655;SDS011;41530;52.382;5.270;2023-05-02T14:17:40;0.98;;;0.55;;
55655;SDS011;41530;52.382;5.270;2023-05-02T14:20:07;0.82;;;0.43;;
55655;SDS011;41530;52.382;5.270;2023-05-02T14:22:35;0.90;;;0.52;;
55655;SDS011;41530;52.382;5.270;2023-05-02T14:25:02;1.10;;;0.68;;
55655;SDS011;41530;52.382;5.270;2023-05-02T14:27:29;0.30;;;0.30;;
55655;SDS011;41530;52.382;5.270;2023-05-02T14:29:55;1.42;;;0.60;;
55655;SDS011;41530;52.382;5.270;2023-05-02T14:32:22;0.60;;;0.50;;
55655;SDS011;41530;52.382;5.270;2023-05-02T14:34:48;0.60;;;0.50;;
55655;SDS011;41530;52.382;5.270;2023-05-02T14:37:15;1.08;;;0.60;;
55655;SDS011;41530;52.382;5.270;2023-05-02T14:39:42;2.05;;;0.50;;
55655;SDS011;41530;52.382;5.270;2023-05-02T14:42:12;0.40;;;0.40;;
55655;SDS011;41530;52.382;5.270;2023-05-02T14:44:39;0.60;;;0.60;;
55655;SDS011;41530;52.382;5.270;2023-05-02T14:47:07;0.40;;;0.40;;
55655;SDS011;41530;52.382;5.270;2023-05-02T14:49:33;0.82;;;0.40;;
55655;SDS011;41530;52.382;5.270;2023-05-02T14:52:00;0.68;;;0.50;;
55655;SDS011;41530;52.382;5.270;2023-05-02T14:54:27;0.93;;;0.50;;
55655;SDS011;41530;52.382;5.270;2023-05-02T14:56:55;1.00;;;0.50;;
55655;SDS011;41530;52.382;5.270;2023-05-02T14:59:23;0.57;;;0.40;;
55655;SDS011;41530;52.382;5.270;2023-05-02T15:01:50;0.50;;;0.50;;
55655;SDS011;41530;52.382;5.270;2023-05-02T15:04:18;0.73;;;0.40;;
55655;SDS011;41530;52.382;5.270;2023-05-02T15:06:45;0.73;;;0.40;;
55655;SDS011;41530;52.382;5.270;2023-05-02T15:09:13;1.15;;;0.65;;
55655;SDS011;41530;52.382;5.270;2023-05-02T15:11:41;0.30;;;0.30;;
55655;SDS011;41530;52.382;5.270;2023-05-02T15:14:07;0.38;;;0.38;;
55655;SDS011;41530;52.382;5.270;2023-05-02T15:16:34;0.70;;;0.50;;
55655;SDS011;41530;52.382;5.270;2023-05-02T15:19:02;1.25;;;0.55;;
55655;SDS011;41530;52.382;5.270;2023-05-02T15:21:29;0.45;;;0.40;;
55655;SDS011;41530;52.382;5.270;2023-05-02T15:23:56;1.00;;;0.50;;
55655;SDS011;41530;52.382;5.270;2023-05-02T15:26:22;0.43;;;0.40;;
55655;SDS011;41530;52.382;5.270;2023-05-02T15:28:51;0.80;;;0.40;;
55655;SDS011;41530;52.382;5.270;2023-05-02T15:31:18;0.40;;;0.40;;
55655;SDS011;41530;52.382;5.270;2023-05-02T15:33:45;1.05;;;0.50;;
55655;SDS011;41530;52.382;5.270;2023-05-02T15:36:11;0.90;;;0.50;;
55655;SDS011;41530;52.382;5.270;2023-05-02T15:38:38;0.85;;;0.40;;
55655;SDS011;41530;52.382;5.270;2023-05-02T15:41:08;0.60;;;0.40;;
55655;SDS011;41530;52.382;5.270;2023-05-02T15:43:35;1.10;;;0.45;;
55655;SDS011;41530;52.382;5.270;2023-05-02T15:46:03;0.28;;;0.28;;
55655;SDS011;41530;52.382;5.270;2023-05-02T15:48:30;1.15;;;0.47;;
55655;SDS011;41530;52.382;5.270;2023-05-02T15:51:01;1.10;;;0.50;;
55655;SDS011;41530;52.382;5.270;2023-05-02T15:53:28;0.40;;;0.40;;
55655;SDS011;41530;52.382;5.270;2023-05-02T15:55:55;0.50;;;0.40;;
55655;SDS011;41530;52.382;5.270;2023-05-02T15:58:22;0.70;;;0.50;;
55655;SDS011;41530;52.382;5.270;2023-05-02T16:00:48;0.50;;;0.38;;
55655;SDS011;41530;52.382;5.270;2023-05-02T16:03:17;1.23;;;0.50;;
55655;SDS011;41530;52.382;5.270;2023-05-02T16:05:44;1.55;;;0.50;;
55655;SDS011;41530;52.382;5.270;2023-05-02T16:08:11;0.52;;;0.45;;
55655;SDS011;41530;52.382;5.270;2023-05-02T16:10:38;1.45;;;0.60;;
55655;SDS011;41530;52.382;5.270;2023-05-02T16:13:05;1.52;;;0.60;;
55655;SDS011;41530;52.382;5.270;2023-05-02T16:15:32;0.70;;;0.50;;
55655;SDS011;41530;52.382;5.270;2023-05-02T16:17:58;0.90;;;0.50;;
55655;SDS011;41530;52.382;5.270;2023-05-02T16:20:25;3.60;;;0.57;;
55655;SDS011;41530;52.382;5.270;2023-05-02T16:22:54;1.45;;;0.63;;
55655;SDS011;41530;52.382;5.270;2023-05-02T16:25:20;1.80;;;0.50;;
55655;SDS011;41530;52.382;5.270;2023-05-02T16:27:47;0.40;;;0.40;;
55655;SDS011;41530;52.382;5.270;2023-05-02T16:30:14;1.55;;;0.40;;
55655;SDS011;41530;52.382;5.270;2023-05-02T16:32:41;2.30;;;0.45;;
55655;SDS011;41530;52.382;5.270;2023-05-02T16:35:08;0.63;;;0.40;;
55655;SDS011;41530;52.382;5.270;2023-05-02T16:37:38;1.65;;;0.60;;
55655;SDS011;41530;52.382;5.270;2023-05-02T16:40:06;0.93;;;0.60;;
55655;SDS011;41530;52.382;5.270;2023-05-02T16:42:34;2.50;;;0.57;;
55655;SDS011;41530;52.382;5.270;2023-05-02T16:45:01;0.80;;;0.60;;
55655;SDS011;41530;52.382;5.270;2023-05-02T16:47:28;1.02;;;0.50;;
55655;SDS011;41530;52.382;5.270;2023-05-02T16:49:55;1.63;;;0.50;;
55655;SDS011;41530;52.382;5.270;2023-05-02T16:52:25;0.95;;;0.45;;
55655;SDS011;41530;52.382;5.270;2023-05-02T16:54:53;1.20;;;0.50;;
55655;SDS011;41530;52.382;5.270;2023-05-02T16:57:20;0.90;;;0.52;;
55655;SDS011;41530;52.382;5.270;2023-05-02T16:59:47;0.57;;;0.52;;
55655;SDS011;41530;52.382;5.270;2023-05-02T17:02:15;0.57;;;0.40;;
55655;SDS011;41530;52.382;5.270;2023-05-02T17:04:44;1.42;;;0.40;;
55655;SDS011;41530;52.382;5.270;2023-05-02T17:07:11;1.45;;;0.55;;
55655;SDS011;41530;52.382;5.270;2023-05-02T17:09:38;0.82;;;0.57;;